Date,TemperatureHighF,TemperatureAvgF,TemperatureLowF,DewpointHighF,DewpointAvgF,DewpointLowF,HumidityHigh,HumidityAvg,HumidityLow,PressureMaxIn,PressureMinIn,WindSpeedMaxMPH,WindSpeedAvgMPH,GustSpeedMaxMPH,PrecipitationSumIn
2013-1-1,38.8,34.0,30.0,34.3,30.9,27.1,92,88,82,30.47,30.32,6,0,6,0.01
2013-1-2,42.1,34.1,30.0,36.7,30.8,27.5,90,88,80,30.32,30.16,4,0,4,0.01
2013-1-3,42.4,34.7,28.0,37.4,31.4,25.5,90,87,80,30.16,30.02,10,0,10,0.10
2013-1-4,42.3,39.0,36.0,39.6,36.2,33.3,90,90,89,30.24,30.07,7,0,7,0.06
2013-1-5,46.6,41.9,38.8,41.0,38.3,36.1,90,87,76,30.13,29.98,12,1,12,0.20
2013-1-6,42.4,40.7,38.8,39.2,37.4,36.0,91,88,85,30.04,29.85,10,1,10,0.24
2013-1-7,41.2,39.1,34.9,38.5,36.4,32.0,90,90,88,30.04,29.69,12,1,12,0.48
2013-1-8,45.0,38.9,34.7,42.3,36.2,31.8,90,90,89,30.07,29.50,10,1,11,0.78
2013-1-9,45.9,41.5,38.3,41.2,37.3,34.3,92,85,74,29.83,29.52,9,0,9,0.01
2013-1-10,40.6,35.7,31.5,35.2,30.4,22.3,96,81,68,30.10,29.83,12,1,12,0.00
2013-1-11,35.4,29.5,27.1,24.3,21.7,19.9,81,73,62,30.27,30.10,13,1,14,0.00
2013-6-18,69.3,63.1,55.8,58.1,54.3,48.4,87,73,64,29.97,29.91,11,1,11,0.35
2013-6-19,65.5,59.4,53.1,57.0,53.0,48.2,92,79,68,29.97,29.88,13,2,14,0.13
2013-6-20,59.4,57.2,55.2,55.6,52.5,50.7,92,84,78,30.09,29.88,17,3,17,0.24
2013-6-21,68.5,60.0,53.8,57.0,53.8,50.9,92,81,65,30.18,30.08,13,1,15,0.13
2013-6-22,69.8,62.8,58.5,58.3,55.4,52.5,86,77,62,30.14,29.90,13,1,13,0.00
2013-6-23,64.2,60.6,53.8,60.8,55.6,49.1,90,83,73,29.90,29.62,7,0,10,0.06
2013-6-24,64.2,60.2,57.7,61.2,56.3,54.0,92,87,76,29.70,29.55,10,0,10,0.92
2013-6-25,67.1,60.4,56.7,59.5,55.6,52.9,90,84,68,29.81,29.67,12,0,14,0.08
2013-6-26,68.9,61.5,57.4,59.9,56.2,53.8,89,83,71,30.09,29.80,18,0,18,0.06
2013-6-27,67.5,62.3,59.0,61.3,57.9,54.1,92,85,76,30.23,30.05,7,0,9,0.24
2013-6-28,67.6,64.2,60.1,62.6,59.5,56.8,90,85,78,30.24,30.09,11,1,12,0.01
2013-6-29,79.3,68.0,60.3,66.7,61.4,57.0,92,80,59,30.12,30.00,9,0,9,0.00
2013-6-30,85.3,70.1,59.9,68.5,62.3,56.3,89,77,49,30.04,29.86,7,0,7,0.00
2013-7-1,84.6,71.2,62.8,68.2,63.2,57.6,85,76,52,30.00,29.90,7,1,7,0.00
2013-7-2,77.7,69.8,62.1,66.4,62.1,56.8,89,77,65,30.10,30.00,10,1,10,0.00
2013-7-3,76.3,66.2,57.6,59.5,55.6,50.7,84,69,43,30.16,30.03,13,2,16,0.00
2013-7-4,73.0,63.3,56.8,57.6,54.6,50.7,84,74,57,30.10,30.02,9,1,9,0.00
2013-7-5,70.3,62.7,52.5,60.3,54.8,47.8,86,76,65,30.04,29.93,16,3,16,0.00
2013-7-6,70.0,61.3,52.9,58.8,54.2,48.9,88,78,62,30.02,29.86,15,3,18,0.00
2013-7-7,70.5,62.1,54.9,58.3,55.1,51.4,89,78,62,29.96,29.87,19,2,19,0.00
2013-7-8,71.2,63.0,57.4,59.7,56.5,53.8,88,80,62,30.10,29.94,11,1,11,0.00
2013-7-9,80.8,67.1,56.1,62.6,58.2,52.0,87,74,47,30.13,29.98,9,1,10,0.00
2013-7-10,74.3,65.3,58.8,61.9,56.5,51.8,89,74,59,30.04,29.90,13,2,13,0.00
2013-7-11,70.3,62.5,57.0,54.1,50.0,46.8,78,64,47,30.06,29.93,19,4,19,0.00
2013-7-12,71.6,61.3,52.2,57.7,50.8,45.9,85,69,45,30.09,30.01,14,2,14,0.00
2013-7-13,69.4,61.4,52.2,59.9,52.3,45.1,85,72,62,30.23,30.09,11,1,11,0.00
2013-7-14,70.3,62.6,51.8,58.6,53.0,46.4,83,71,51,30.14,30.03,16,2,17,0.00
2013-7-15,71.8,62.7,51.1,59.4,53.4,46.0,85,72,53,30.12,29.95,14,3,16,0.00
2013-7-16,78.3,67.1,55.6,59.7,55.4,48.7,84,67,44,29.97,29.84,12,1,12,0.00
2013-7-17,74.3,69.2,63.7,62.4,58.7,51.6,81,69,55,30.18,29.85,15,1,15,0.00
2013-7-18,74.7,65.3,57.7,64.6,58.5,53.6,88,79,63,30.25,30.12,6,1,6,0.00
2013-7-19,73.0,65.2,57.7,63.3,59.4,54.3,90,82,68,30.17,30.03,10,1,10,0.00
2013-7-20,73.8,64.6,57.7,63.3,58.7,54.5,92,82,67,30.07,29.96,12,1,13,0.00
2013-7-21,72.9,64.2,55.8,61.5,57.7,52.5,90,80,67,29.98,29.91,10,1,10,0.00
2013-7-22,74.1,65.0,58.1,62.1,57.8,54.0,88,78,60,30.06,29.93,10,1,10,0.00
2013-7-23,77.9,66.0,56.7,61.5,57.2,51.8,85,74,50,30.10,29.97,6,1,7,0.00
2013-7-24,76.8,66.5,56.8,64.6,58.8,52.5,87,77,56,30.07,29.99,9,1,9,0.00
2013-7-25,75.6,65.5,55.6,62.4,57.6,50.5,88,76,59,30.12,30.02,10,1,10,0.00
2013-7-26,73.6,65.2,55.8,61.7,55.6,50.9,87,72,52,30.17,30.08,19,4,19,0.00
2013-7-27,70.5,63.7,57.7,57.7,53.7,50.0,82,70,54,30.15,29.99,16,3,18,0.00
2013-7-28,72.7,62.2,52.5,61.3,55.2,48.4,88,78,60,30.02,29.92,12,1,12,0.00
2013-7-29,73.6,64.5,55.2,61.9,56.9,51.1,88,77,64,30.01,29.93,9,1,10,0.00
2013-7-30,75.2,65.4,55.9,62.4,57.7,51.8,88,77,60,30.14,29.99,12,1,13,0.00
2013-7-31,75.4,66.0,57.6,63.3,58.7,53.2,88,78,65,30.12,29.98,10,1,11,0.02
2013-8-1,72.0,65.8,61.5,61.7,59.5,55.9,90,80,68,30.04,29.98,11,1,15,0.25
2013-8-2,63.0,61.4,60.3,58.3,57.1,55.9,89,86,83,30.15,30.00,11,1,16,0.04
2013-8-3,70.9,63.8,60.4,61.5,58.3,56.5,88,82,71,30.16,30.07,4,0,5,0.00
2013-8-4,73.4,66.3,62.1,63.0,60.0,57.6,88,81,64,30.09,29.95,12,2,12,0.00
2013-8-5,77.0,65.4,55.9,64.4,58.4,49.8,86,78,65,30.03,29.93,9,1,9,0.00
2013-8-6,76.8,66.3,56.5,63.7,58.5,52.3,87,77,58,30.02,29.92,10,0,10,0.00
2013-8-7,79.0,67.9,57.9,64.9,59.0,52.7,84,74,55,30.02,29.93,11,1,12,0.00
2013-8-8,77.4,66.4,58.5,63.9,59.4,54.1,87,79,60,30.04,29.92,10,1,12,0.00
2013-8-9,81.0,68.3,57.7,66.9,61.0,54.0,87,78,57,29.96,29.79,7,1,7,0.00
2013-8-10,77.0,69.4,62.4,66.0,61.5,57.2,86,76,65,29.99,29.86,9,1,16,0.00
2013-8-11,71.2,64.5,60.8,61.9,58.3,55.4,86,80,72,30.08,29.97,9,0,17,0.02
2013-8-12,73.6,66.0,60.1,61.9,58.7,55.0,85,78,63,30.08,30.01,15,1,17,0.00
2013-8-13,75.0,66.0,57.7,61.9,58.1,53.6,87,76,56,30.11,29.95,14,1,14,0.00
2013-8-14,70.2,66.7,57.0,64.2,60.3,51.3,87,80,71,29.96,29.90,12,0,12,0.06
2013-8-15,71.2,66.7,63.5,64.8,61.7,59.5,87,84,77,29.99,29.92,12,0,14,0.06
2013-8-16,69.1,65.7,64.0,63.9,61.3,60.1,87,86,80,30.02,29.96,13,1,13,0.11
2013-8-17,75.2,68.1,62.2,63.9,60.5,56.3,88,77,60,30.05,29.98,10,0,14,0.00
2013-8-18,74.5,66.3,61.3,62.1,58.2,53.8,85,76,64,30.12,30.04,13,1,13,0.00
2013-8-19,72.9,64.8,58.5,60.6,56.4,52.3,86,75,61,30.12,30.04,16,1,17,0.00
2013-8-20,70.5,62.9,55.2,59.9,53.8,48.7,86,73,57,30.19,30.10,18,3,18,0.00
2013-8-21,74.7,64.9,54.1,62.4,54.8,47.1,81,70,57,30.12,29.96,14,1,14,0.00
2013-8-22,75.0,65.5,55.8,64.4,57.8,50.0,84,77,60,29.97,29.79,7,1,7,0.00
2013-8-23,73.4,64.0,56.7,61.0,57.1,52.0,89,79,64,29.88,29.79,19,1,19,0.02
2013-8-24,70.3,62.9,57.6,60.8,57.1,52.5,89,82,71,29.92,29.86,13,0,13,0.02
2013-8-25,74.1,62.0,53.8,59.5,53.9,48.7,85,75,54,29.97,29.85,7,1,7,0.02
2013-8-26,70.5,62.6,55.4,60.1,55.3,49.1,87,77,65,29.92,29.84,17,0,17,0.09
2013-8-27,71.2,64.0,59.0,60.8,57.8,54.5,88,81,68,29.94,29.83,13,1,16,0.12
2013-8-28,72.0,64.2,59.0,62.8,59.0,55.2,88,83,72,29.91,29.83,16,1,16,0.13
2013-8-29,67.6,64.4,61.9,63.9,60.7,58.3,89,87,85,29.94,29.86,10,1,10,0.55
2013-8-30,75.2,63.8,59.0,60.1,57.2,54.3,88,80,57,30.18,29.94,9,1,10,0.55
2013-8-31,71.2,62.5,54.9,61.3,56.8,50.7,88,82,67,30.13,29.85,13,2,13,0.02
2013-9-1,72.9,63.8,54.9,62.4,57.2,51.3,88,80,61,29.90,29.80,10,0,11,0.00
2013-9-2,71.8,64.3,59.0,63.0,58.8,54.9,87,83,68,29.95,29.85,6,0,6,0.00
2013-9-3,73.6,62.6,56.8,63.3,57.8,53.1,89,85,64,30.06,29.94,13,0,13,0.35
2013-9-4,70.0,63.5,57.4,62.6,58.6,53.8,88,84,75,30.08,30.01,14,2,15,0.00
2013-9-5,65.5,62.2,56.8,60.8,58.1,53.1,89,87,84,30.07,29.91,14,1,18,0.01
2013-9-6,68.2,63.3,59.0,62.1,59.0,55.4,88,86,81,30.09,29.91,10,0,10,0.01
2013-9-7,69.4,63.3,59.0,62.4,59.0,55.4,88,86,76,30.12,30.04,7,0,7,0.05
2013-9-8,69.4,62.2,56.5,63.0,57.9,52.9,88,86,79,30.13,30.03,7,0,7,0.00
2013-9-9,71.1,62.9,56.7,63.3,57.9,53.2,89,84,70,30.10,29.99,11,1,11,0.01
2013-9-10,72.1,63.6,55.0,62.4,57.9,51.6,88,82,67,30.04,29.93,13,2,14,0.00
2013-9-11,78.8,66.0,57.7,65.8,59.6,53.4,88,80,62,30.00,29.90,6,1,6,0.00
2013-9-12,78.1,67.2,58.8,64.6,58.6,52.2,86,74,56,30.00,29.87,6,0,7,0.00
2013-9-13,66.7,61.9,57.2,61.0,57.6,53.4,88,86,81,29.98,29.86,9,0,10,0.00
2013-9-14,62.8,61.0,59.7,59.2,57.4,56.1,88,88,88,29.90,29.77,7,0,7,0.00
2013-9-15,65.5,60.5,57.6,61.5,57.1,54.5,90,89,86,29.81,29.68,18,1,18,0.65
2013-9-16,63.9,59.6,54.1,59.7,56.1,50.9,89,88,84,29.92,29.73,6,0,11,0.66
2013-9-17,63.7,57.3,51.6,57.0,52.4,48.2,92,84,75,29.91,29.84,15,2,15,0.66
2013-9-18,67.1,56.6,48.0,56.5,50.4,44.6,89,80,66,30.07,29.91,11,0,11,0.00
2013-9-19,66.6,59.1,53.8,56.8,52.2,48.0,84,78,68,30.06,29.74,12,1,12,0.00
2013-9-20,65.7,59.1,52.9,57.2,53.3,48.2,89,82,66,29.75,29.59,14,1,14,0.20
2013-9-21,65.5,58.8,55.6,58.3,54.0,51.3,89,84,74,29.72,29.61,10,0,13,0.21
2013-9-22,59.2,55.6,53.2,55.4,52.0,50.0,89,88,83,29.66,29.47,13,1,13,1.03
2013-9-23,63.9,55.7,49.3,53.2,49.4,44.2,89,80,59,29.94,29.65,11,0,13,1.03
2013-9-24,61.2,52.0,46.0,51.6,46.6,42.4,92,82,66,29.95,29.87,14,0,14,0.47
2013-9-25,64.2,53.3,46.9,53.1,47.5,43.5,89,81,55,30.02,29.90,20,4,20,0.00
2013-9-26,60.4,51.8,45.3,52.9,46.5,40.5,88,82,75,30.14,30.02,13,1,13,0.00
2013-9-27,54.0,52.2,49.1,49.3,47.4,46.0,92,84,78,30.08,30.03,4,0,4,0.24
2013-9-28,55.9,53.5,51.4,52.3,50.0,48.0,89,88,83,29.57,29.22,15,2,16,0.73
2013-9-29,53.1,51.9,49.8,49.8,48.7,45.7,89,88,84,29.45,29.04,18,3,21,0.77
2013-9-30,54.0,50.8,47.5,50.5,46.8,43.9,92,86,79,29.85,29.22,20,1,20,0.77
2013-10-1,55.2,48.9,45.9,46.9,44.6,42.8,89,85,70,30.09,29.85,11,0,14,0.33
2013-10-2,52.2,48.6,45.9,47.8,45.2,42.8,89,88,84,30.23,30.06,7,0,9,0.23
2013-10-3,53.6,47.6,40.6,48.0,43.6,37.4,89,86,80,30.48,30.23,11,1,11,0.00
2013-10-4,55.4,48.8,41.2,48.7,44.7,37.9,92,86,77,30.50,30.37,11,0,11,0.01
2013-10-5,61.2,55.3,50.5,53.4,49.6,46.2,89,81,69,30.37,30.17,8,0,9,0.00
2013-10-6,65.8,55.3,47.7,54.1,49.6,44.4,92,82,60,30.17,29.78,14,0,14,0.02
2013-10-7,60.3,54.9,50.5,50.9,49.0,47.5,89,81,64,29.96,29.78,11,1,12,0.12
2013-10-8,57.0,51.5,44.2,48.4,44.4,39.7,91,77,67,30.13,29.94,20,4,22,0.01
2013-10-9,56.8,49.6,43.3,48.4,43.5,37.6,87,80,68,30.16,29.97,11,0,11,0.00
2013-10-10,54.7,48.9,42.8,48.0,44.0,39.2,88,83,74,30.09,29.95,17,2,17,0.01
2013-10-11,52.0,46.1,39.7,45.9,41.8,36.3,89,85,78,30.18,30.09,4,0,4,0.00
2013-10-12,53.4,48.4,43.3,48.0,44.2,39.7,92,85,79,30.24,30.11,19,3,19,0.00
2013-10-13,54.7,46.0,41.2,48.6,41.8,37.0,88,85,79,30.40,30.24,6,0,6,0.00
2013-10-14,55.6,47.5,40.8,49.3,43.7,37.8,92,87,77,30.47,30.39,11,1,11,0.00
2013-10-15,52.0,46.9,42.3,48.0,43.6,39.2,90,88,84,30.41,30.21,6,0,6,0.01
2013-10-16,55.9,49.1,42.6,51.1,45.6,39.6,89,88,83,30.25,30.18,14,2,14,0.01
2013-10-17,51.3,47.9,43.9,48.2,44.9,40.8,90,89,89,30.32,30.24,10,1,11,0.01
2013-10-18,47.7,44.4,39.4,44.6,41.4,36.5,90,89,89,30.30,30.19,5,0,5,0.01
2013-10-19,50.2,46.9,43.0,47.3,43.9,39.9,90,89,89,30.24,30.17,10,1,11,0.01
2013-10-20,49.6,47.9,46.2,46.6,44.8,43.2,89,89,88,30.25,30.17,5,0,6,0.00
2013-10-21,48.9,47.1,45.5,45.9,43.9,42.1,89,89,88,30.21,30.13,6,0,6,0.01
2013-10-22,51.4,46.1,42.3,48.4,43.2,39.2,90,89,88,30.17,30.06,6,0,6,0.01
2013-10-23,53.2,46.2,40.6,50.4,43.1,37.4,90,89,88,30.09,30.01,5,0,6,0.02
2013-10-24,53.4,46.2,41.7,50.5,43.2,38.7,90,89,89,30.12,30.04,5,0,6,0.01
2013-10-25,52.0,48.3,44.2,48.9,45.3,41.2,90,89,88,30.36,30.12,6,0,6,0.01
2013-10-26,55.4,50.4,48.6,48.6,46.4,45.0,90,86,73,30.38,30.16,16,2,16,0.00
2013-10-27,62.2,51.6,46.2,48.6,44.7,32.9,89,78,54,30.16,29.96,22,2,22,0.00
2013-10-28,58.5,46.6,39.6,44.6,36.0,30.2,79,67,51,30.09,29.96,7,0,7,0.00
2013-10-29,54.9,43.7,36.0,42.8,34.5,29.1,84,70,46,30.05,29.98,9,0,9,0.00
2013-10-30,52.2,46.1,38.3,46.0,40.1,31.8,92,80,66,30.11,30.03,17,0,17,0.11
2013-10-31,52.3,49.3,47.7,48.6,46.1,44.2,92,88,86,30.27,30.08,6,0,6,0.02
2013-11-1,55.0,51.0,48.9,50.0,47.5,45.9,92,88,81,30.27,29.81,10,0,10,0.40
2013-11-2,49.6,45.9,41.5,46.6,42.8,38.5,89,89,88,29.87,29.48,17,2,18,1.49
2013-11-3,48.9,40.6,34.5,39.6,35.4,30.0,89,82,61,30.14,29.87,9,0,10,1.49
2013-11-4,45.9,40.2,33.4,36.3,32.8,28.8,86,75,60,30.22,30.09,10,0,12,0.00
2013-11-5,43.9,41.0,35.4,40.1,36.5,32.2,89,84,63,30.29,30.06,11,0,11,0.05
2013-11-6,48.4,43.7,37.0,43.3,39.2,34.2,92,84,72,30.35,30.00,5,0,5,0.14
2013-11-7,52.2,49.0,44.1,48.9,45.2,40.6,92,87,80,30.00,29.64,12,1,13,0.22
2013-11-8,50.9,45.6,39.4,45.3,41.6,36.5,92,86,75,30.15,29.93,10,0,12,0.00
2013-11-9,47.7,46.2,44.1,44.4,42.2,40.6,89,86,79,30.17,30.12,7,0,8,0.09
2013-11-10,46.8,43.8,40.6,42.4,40.5,37.6,94,88,82,30.22,30.16,13,2,13,0.00
2013-11-11,50.5,45.5,42.6,43.3,40.8,39.6,89,84,70,30.21,30.00,6,0,7,0.00
2013-11-12,57.6,52.3,47.7,51.3,47.8,42.3,89,85,73,30.30,29.94,23,1,23,0.27
2013-11-13,55.6,49.8,45.3,49.1,45.6,42.1,89,86,78,30.41,30.30,6,0,7,0.01
2013-11-14,51.4,47.5,39.9,46.2,42.7,35.8,92,83,68,30.31,30.04,17,2,18,0.00
2013-11-15,45.0,42.1,39.0,41.9,38.9,35.2,89,89,86,30.05,29.29,24,1,26,0.48
2013-11-16,45.3,41.2,37.9,37.9,35.7,32.7,89,81,68,29.73,29.43,11,1,11,0.00
2013-11-17,48.9,43.1,36.5,44.1,38.6,32.2,88,84,74,29.86,29.73,7,0,7,0.01
2013-11-18,46.2,44.1,41.7,42.3,40.6,38.7,90,87,84,29.87,29.58,11,1,12,0.34
2013-11-19,42.4,39.4,30.4,40.3,30.7,23.0,92,72,48,30.12,29.59,30,6,30,0.34
2013-11-20,40.5,33.3,28.0,30.7,26.1,21.6,83,75,60,30.56,30.13,7,0,7,0.00
2013-11-21,42.4,34.0,28.6,33.3,28.4,23.5,88,80,69,30.71,30.56,7,0,7,0.00
2013-11-22,43.3,36.1,30.9,35.4,30.6,26.6,92,81,65,30.71,30.50,9,1,11,0.00
2013-11-23,44.4,37.7,31.6,38.3,33.6,27.7,92,85,74,30.50,30.25,7,0,8,0.00
2013-11-24,46.9,39.8,34.2,41.2,36.2,30.9,89,87,78,30.29,30.22,6,0,6,0.00
2013-11-25,49.3,40.7,35.8,42.1,36.8,32.5,89,86,75,30.35,30.28,6,0,6,0.00
2013-11-26,46.9,40.8,34.3,41.0,36.7,31.1,92,85,78,30.30,30.12,10,0,10,0.00
2013-11-27,48.2,44.1,40.6,43.2,40.0,36.1,89,85,80,30.15,29.99,7,0,7,0.00
2013-11-28,47.7,43.8,38.5,43.9,40.5,35.6,92,88,84,30.20,30.04,5,0,6,0.01
2013-11-29,48.4,46.0,45.0,45.3,43.0,41.5,92,89,86,30.29,30.18,6,0,6,0.31
2013-11-30,47.7,45.8,43.7,45.0,42.9,40.6,90,90,89,30.31,30.02,8,0,8,0.43
2013-12-1,53.6,46.9,37.0,49.5,42.7,32.5,90,85,69,30.02,29.69,23,2,26,0.45
2013-12-2,44.1,38.3,32.5,34.9,31.5,26.1,88,77,66,30.17,29.75,21,3,21,0.02
2013-12-3,41.5,32.9,27.9,30.9,26.4,23.9,92,77,59,30.38,30.17,13,0,13,0.00
2013-12-4,39.4,31.0,27.0,28.2,24.1,22.3,85,76,56,30.42,30.35,6,0,7,0.00
2013-12-5,34.0,30.2,25.0,24.1,21.5,18.3,81,70,57,30.35,30.25,13,0,13,0.00
2013-12-6,34.5,25.9,19.9,20.7,12.5,1.6,83,58,31,30.38,30.25,10,0,12,0.00
2013-12-7,32.4,24.4,18.1,17.1,10.6,-0.2,74,56,38,30.44,30.36,6,0,6,0.00
2013-12-8,33.3,27.6,23.9,21.7,19.5,16.5,78,71,61,30.58,30.43,5,0,5,0.00
2013-12-9,33.3,30.6,28.0,28.6,25.5,21.6,89,81,76,30.58,30.49,5,0,5,0.00
2013-12-10,36.7,33.6,31.5,31.8,30.1,28.6,92,87,77,30.51,30.45,6,0,7,0.02
2013-12-11,40.5,36.0,32.4,34.3,31.6,28.6,92,84,76,30.46,30.17,3,0,4,0.02
2013-12-12,41.4,38.0,33.1,38.3,34.8,29.7,90,88,82,30.19,30.00,7,0,7,0.35
2013-12-13,44.4,41.9,39.7,41.4,38.9,36.7,90,89,89,30.43,30.14,4,0,4,0.06
2013-12-14,46.6,45.4,42.6,43.3,42.4,39.6,90,89,86,30.43,30.29,7,1,9,0.02
2013-12-15,50.4,45.4,37.8,46.0,42.3,35.1,90,89,84,30.43,30.27,7,0,7,0.02
2013-12-16,45.0,40.0,34.3,42.1,37.2,31.6,90,90,87,30.50,30.29,5,0,5,0.01
2013-12-17,43.9,41.5,36.3,40.5,38.6,33.6,90,89,86,30.30,30.06,9,0,10,0.02
2013-12-18,44.4,39.9,33.1,41.7,33.4,23.4,90,78,63,30.29,30.02,20,4,22,0.01
2013-12-19,37.8,33.6,29.8,29.1,26.1,20.5,88,74,57,30.39,30.20,7,0,7,0.00
2013-12-20,34.3,33.3,32.2,31.6,30.7,28.9,90,90,88,30.20,29.75,4,0,4,0.07
2013-12-21,38.8,36.2,34.0,36.5,33.5,31.3,91,90,90,30.19,29.90,6,0,6,0.25
2013-12-22,44.2,39.6,37.0,41.5,37.0,34.3,91,90,90,30.31,30.19,4,0,4,0.31
2013-12-23,49.3,45.5,38.8,45.5,41.7,34.9,91,86,76,30.49,30.06,24,2,24,0.31
2013-12-24,43.9,38.5,34.3,38.7,35.1,31.5,92,88,79,30.64,30.49,11,0,11,0.00
2013-12-25,43.0,38.4,32.5,38.7,35.0,29.1,92,88,80,30.58,30.41,9,0,9,0.06
2013-12-26,44.4,41.8,39.4,41.2,39.1,36.7,91,90,87,30.42,30.22,3,0,7,0.10
2013-12-27,48.7,43.2,38.5,43.3,39.8,36.1,92,88,78,30.35,30.03,20,2,22,0.10
2013-12-28,43.2,39.7,34.9,40.1,37.0,32.0,91,90,86,30.54,30.35,7,0,7,0.05
2013-12-29,43.5,40.7,37.0,40.8,38.3,34.7,91,91,90,30.51,30.34,4,0,4,0.05
2013-12-30,45.0,42.2,40.6,42.1,39.6,38.3,91,91,88,30.35,30.10,6,0,7,0.05
2013-12-31,45.0,42.9,38.5,42.4,40.4,36.1,91,91,90,30.41,30.17,3,0,3,0.03
2014-1-1,43.9,41.5,37.9,41.0,39.0,35.6,91,91,89,30.44,30.27,5,0,6,0.07
2014-1-2,46.8,43.8,40.6,43.0,40.8,35.8,92,89,79,30.27,29.83,24,2,24,0.51